Time;durP1;ratioP1;P1;durP2;ratioP2;P2;SDS_P1;SDS_P2;PMS_P1;PMS_P2;Temp;Humidity;BMP_temperature;BMP_pressure;BME280_temperature;BME280_humidity;BME280_pressure;Samples;Min_cycle;Max_cycle;Signal;HPM_P1;HPM_P2
2021/04/24 00:02:21;;;;;;;0.13;0.13;;;;;;;3.96;51.02;101384.47;5091036;28;20551;-72
2021/04/24 00:04:49;;;;;;;0.33;0.20;;;;;;;3.89;50.57;101377.59;5093453;28;20776;-71
2021/04/24 00:07:18;;;;;;;0.00;0.00;;;;;;;3.89;50.64;101384.69;5094082;28;20227;-72
2021/04/24 00:09:47;;;;;;;0.07;0.07;;;;;;;3.85;50.64;101383.91;5089710;28;20283;-72
2021/04/24 00:12:15;;;;;;;0.20;0.20;;;;;;;3.82;51.10;101378.72;5087034;28;20576;-71
2021/04/24 00:14:43;;;;;;;0.60;0.10;;;;;;;3.80;51.57;101380.53;5077957;28;20595;-70
2021/04/24 00:17:10;;;;;;;0.10;0.10;;;;;;;3.58;51.43;101347.56;5090705;28;20204;-70
2021/04/24 00:19:37;;;;;;;0.13;0.13;;;;;;;3.72;51.17;101393.19;5079792;28;20211;-70
2021/04/24 00:22:05;;;;;;;0.10;0.10;;;;;;;3.65;51.20;101381.84;5076906;28;20217;-72
2021/04/24 00:24:33;;;;;;;0.10;0.10;;;;;;;3.72;51.62;101387.88;5091691;28;20295;-72
2021/04/24 00:27:00;;;;;;;0.07;0.07;;;;;;;3.63;51.64;101372.19;5092614;28;20197;-71
2021/04/24 00:29:27;;;;;;;0.37;0.10;;;;;;;3.63;51.15;101388.97;5081608;28;20205;-72
2021/04/24 00:31:54;;;;;;;0.53;0.10;;;;;;;3.66;51.34;101388.03;5085051;28;20200;-72
2021/04/24 00:34:22;;;;;;;0.00;0.00;;;;;;;3.27;51.64;101337.81;5090016;28;20271;-71
2021/04/24 00:36:49;;;;;;;0.10;0.10;;;;;;;3.64;51.46;101397.81;5077783;28;20247;-72
2021/04/24 00:39:17;;;;;;;0.83;0.10;;;;;;;3.62;51.29;101389.03;5092939;28;20241;-72
2021/04/24 00:41:45;;;;;;;0.10;0.10;;;;;;;3.42;51.73;101374.56;5075322;28;20225;-72
2021/04/24 00:44:12;;;;;;;0.10;0.10;;;;;;;3.50;51.64;101394.69;5089112;28;20219;-72
2021/04/24 00:46:41;;;;;;;1.53;0.57;;;;;;;3.43;51.80;101384.25;5092756;28;20216;-72
2021/04/24 00:49:09;;;;;;;1.33;0.20;;;;;;;3.42;51.44;101385.16;5077415;28;20613;-72
2021/04/24 00:51:37;;;;;;;0.10;0.10;;;;;;;3.44;52.22;101382.47;5079929;28;20604;-72
2021/04/24 00:54:05;;;;;;;0.63;0.20;;;;;;;3.47;52.38;101393.00;5078061;28;20672;-72
2021/04/24 00:56:35;;;;;;;0.30;0.00;;;;;;;3.37;52.28;101389.75;5072187;28;20201;-72
2021/04/24 00:59:03;;;;;;;3.10;0.30;;;;;;;3.37;52.79;101394.19;5081913;28;20201;-72
2021/04/24 01:01:30;;;;;;;0.10;0.10;;;;;;;3.32;52.50;101391.63;5086359;28;20300;-71
2021/04/24 01:03:57;;;;;;;0.00;0.00;;;;;;;3.35;52.15;101388.88;5086911;28;20246;-72
2021/04/24 01:06:24;;;;;;;0.00;0.00;;;;;;;3.12;52.37;101362.13;5083072;28;20202;-71
2021/04/24 01:08:52;;;;;;;0.00;0.00;;;;;;;3.27;51.93;101396.19;5085432;28;20215;-72
2021/04/24 01:11:19;;;;;;;1.93;0.10;;;;;;;3.30;52.35;101392.59;5086160;28;20221;-72
2021/04/24 01:13:49;;;;;;;0.03;0.00;;;;;;;3.25;52.03;101392.72;5083462;28;20271;-72
2021/04/24 01:16:16;;;;;;;0.10;0.10;;;;;;;3.16;52.37;101384.13;5089659;28;20196;-70
2021/04/24 01:18:43;;;;;;;5.23;3.63;;;;;;;3.22;52.76;101399.88;5086096;28;20252;-70
2021/04/24 01:21:12;;;;;;;9.00;3.87;;;;;;;3.21;53.09;101401.69;5078157;28;20220;-70
2021/04/24 01:23:41;;;;;;;8.87;3.17;;;;;;;3.18;53.43;101407.06;5087534;28;20286;-70
2021/04/24 01:26:08;;;;;;;2.07;0.80;;;;;;;3.22;53.17;101408.72;5083321;28;20652;-70
2021/04/24 01:28:35;;;;;;;2.33;1.10;;;;;;;3.12;53.20;101399.28;5086321;28;20694;-70
2021/04/24 01:31:02;;;;;;;2.10;0.70;;;;;;;3.18;53.12;101417.69;5086042;28;20256;-70
2021/04/24 01:33:31;;;;;;;0.40;0.30;;;;;;;3.04;53.50;101417.16;5087771;28;20222;-70
2021/04/24 01:35:58;;;;;;;0.53;0.20;;;;;;;3.11;52.71;101406.38;5083368;28;20634;-70
2021/04/24 01:38:26;;;;;;;0.30;0.30;;;;;;;3.17;53.90;101409.75;5087081;28;20579;-70
2021/04/24 01:40:54;;;;;;;0.63;0.20;;;;;;;3.15;53.11;101408.94;5072532;28;20318;-70
2021/04/24 01:43:21;;;;;;;0.47;0.40;;;;;;;2.36;53.53;101293.38;5082802;28;20199;-71
2021/04/24 01:45:49;;;;;;;0.27;0.27;;;;;;;2.96;53.27;101414.72;5073131;28;20197;-70
2021/04/24 01:48:16;;;;;;;0.30;0.30;;;;;;;2.95;53.40;101406.78;5072301;28;20193;-72
2021/04/24 01:50:45;;;;;;;0.20;0.20;;;;;;;2.94;53.16;101415.66;5076353;28;20283;-71
2021/04/24 01:53:19;;;;;;;0.67;0.67;;;;;;;2.91;53.62;101410.44;5082458;28;20245;-71
2021/04/24 01:55:48;;;;;;;0.30;0.27;;;;;;;2.96;53.67;101405.88;5088101;28;20254;-70
2021/04/24 01:58:20;;;;;;;0.20;0.20;;;;;;;2.88;53.44;101414.03;5076637;28;20552;-69
2021/04/24 02:00:52;;;;;;;0.20;0.20;;;;;;;2.94;53.47;101413.00;5074046;28;20665;-72
2021/04/24 02:03:19;;;;;;;0.57;0.20;;;;;;;2.92;53.68;101404.22;5085788;28;20826;-71
2021/04/24 02:05:48;;;;;;;0.00;0.00;;;;;;;2.90;53.51;101404.25;5078431;28;20195;-71
2021/04/24 02:08:19;;;;;;;0.10;0.03;;;;;;;2.84;53.55;101401.78;5077482;28;20202;-71
2021/04/24 02:10:49;;;;;;;0.03;0.03;;;;;;;2.77;53.91;101413.44;5077325;28;20260;-71
2021/04/24 02:13:19;;;;;;;0.00;0.00;;;;;;;2.73;53.70;101409.97;5075471;28;20572;-71
2021/04/24 02:15:47;;;;;;;0.07;0.07;;;;;;;2.67;54.27;101406.59;5081922;28;20243;-71
2021/04/24 02:18:14;;;;;;;0.67;0.10;;;;;;;2.68;53.78;101416.31;5086290;28;20206;-70
2021/04/24 02:20:43;;;;;;;0.00;0.00;;;;;;;2.69;54.11;101418.91;5074298;28;20424;-70
2021/04/24 02:23:12;;;;;;;0.00;0.00;;;;;;;2.70;54.08;101411.84;5085697;28;20257;-70
2021/04/24 02:25:40;;;;;;;0.93;0.17;;;;;;;2.27;54.14;101340.44;5075568;28;20785;-70
2021/04/24 02:28:07;;;;;;;0.13;0.13;;;;;;;2.54;54.52;101408.69;5086468;28;20720;-70
2021/04/24 02:30:36;;;;;;;0.00;0.00;;;;;;;2.56;54.66;101417.47;5075209;28;20728;-69
2021/04/24 02:33:04;;;;;;;0.00;0.00;;;;;;;2.44;54.56;101407.16;5074446;28;20232;-70
2021/04/24 02:35:39;;;;;;;0.20;0.20;;;;;;;2.45;54.57;101403.63;5086156;28;20252;-70
2021/04/24 02:38:07;;;;;;;0.03;0.03;;;;;;;2.51;54.61;101413.22;5082746;28;20204;-70
2021/04/24 02:40:34;;;;;;;0.00;0.00;;;;;;;2.50;54.62;101414.97;5076807;28;20278;-71
2021/04/24 02:43:02;;;;;;;0.23;0.10;;;;;;;2.48;54.36;101415.03;5082810;28;20226;-72
2021/04/24 02:45:29;;;;;;;2.10;0.00;;;;;;;2.47;54.54;101415.06;5086368;28;20611;-72
2021/04/24 02:47:57;;;;;;;0.63;0.20;;;;;;;2.44;54.77;101423.06;5090961;28;20210;-71
2021/04/24 02:50:24;;;;;;;1.03;0.20;;;;;;;2.33;54.74;101407.41;5090247;28;20203;-72
2021/04/24 02:52:51;;;;;;;0.57;0.20;;;;;;;2.37;55.20;101419.69;5076888;28;20605;-71
2021/04/24 02:55:19;;;;;;;0.87;0.10;;;;;;;2.31;55.05;101413.66;5083002;28;20207;-71
2021/04/24 02:57:46;;;;;;;0.10;0.10;;;;;;;2.30;55.37;101420.75;5088656;28;20224;-71
2021/04/24 03:00:17;;;;;;;0.10;0.10;;;;;;;2.28;55.22;101417.25;5090396;28;20577;-71
2021/04/24 03:02:44;;;;;;;0.10;0.10;;;;;;;2.24;55.30;101406.75;5088849;28;20224;-71
2021/04/24 03:05:15;;;;;;;2.43;0.20;;;;;;;2.26;55.56;101420.84;5085936;28;20222;-71
2021/04/24 03:07:44;;;;;;;0.20;0.20;;;;;;;2.25;55.09;101422.63;5085125;28;20266;-72
2021/04/24 03:10:14;;;;;;;0.40;0.20;;;;;;;2.25;55.20;101416.47;5085371;28;20204;-71
2021/04/24 03:12:41;;;;;;;293.43;164.10;;;;;;;2.22;55.90;101421.81;5085019;28;20214;-71
2021/04/24 03:15:09;;;;;;;75.63;30.63;;;;;;;1.81;56.01;101360.91;5069936;28;20215;-72
2021/04/24 03:17:37;;;;;;;3.47;2.30;;;;;;;2.25;56.10;101427.06;5077889;28;20973;-72
2021/04/24 03:20:06;;;;;;;1.00;0.60;;;;;;;2.22;56.08;101422.69;5087448;28;20589;-73
2021/04/24 03:22:34;;;;;;;1.03;0.47;;;;;;;2.27;55.87;101433.19;5085193;28;20250;-73
2021/04/24 03:25:02;;;;;;;2.60;0.83;;;;;;;2.17;55.61;101421.94;5088080;28;20222;-73
2021/04/24 03:27:30;;;;;;;0.50;0.50;;;;;;;2.06;55.72;101387.72;5074560;28;20197;-73
2021/04/24 03:29:57;;;;;;;0.57;0.30;;;;;;;2.14;56.12;101401.69;5080601;28;20203;-72
2021/04/24 03:32:24;;;;;;;0.10;0.10;;;;;;;2.26;55.82;101428.78;5082665;28;20668;-71
2021/04/24 03:34:51;;;;;;;0.20;0.20;;;;;;;2.23;56.46;101431.53;5084624;28;20199;-72
2021/04/24 03:37:19;;;;;;;0.17;0.13;;;;;;;2.23;56.25;101424.44;5093625;28;20196;-72
2021/04/24 03:39:47;;;;;;;0.90;0.30;;;;;;;2.27;55.99;101431.41;5079977;28;20205;-73
2021/04/24 03:42:15;;;;;;;0.47;0.30;;;;;;;2.04;55.81;101401.91;5084455;28;20273;-73
2021/04/24 03:44:42;;;;;;;0.17;0.17;;;;;;;2.16;56.09;101428.13;5094897;28;20197;-72
2021/04/24 03:47:14;;;;;;;0.53;0.53;;;;;;;2.18;56.14;101434.28;5085462;28;20589;-72
2021/04/24 03:49:43;;;;;;;0.30;0.20;;;;;;;2.22;56.16;101429.78;5089733;28;20568;-73
2021/04/24 03:52:10;;;;;;;0.30;0.30;;;;;;;2.25;56.63;101427.06;5089763;28;20571;-72
2021/04/24 03:54:37;;;;;;;0.20;0.20;;;;;;;2.27;56.46;101425.25;5087323;28;20188;-72
2021/04/24 03:57:06;;;;;;;0.13;0.13;;;;;;;2.40;56.16;101427.56;5087709;28;20249;-73
2021/04/24 03:59:34;;;;;;;0.80;0.23;;;;;;;2.52;55.87;101431.72;5088381;28;20294;-72
2021/04/24 04:02:01;;;;;;;0.10;0.10;;;;;;;2.54;55.98;101419.31;5078881;28;20906;-72
2021/04/24 04:04:29;;;;;;;0.33;0.33;;;;;;;2.52;55.78;101405.22;5079572;28;20204;-73
2021/04/24 04:06:56;;;;;;;0.10;0.10;;;;;;;2.79;55.68;101428.41;5083511;28;20218;-71
2021/04/24 04:09:23;;;;;;;1.33;0.10;;;;;;;2.65;54.96;101395.16;5076682;28;20620;-72
2021/04/24 04:11:50;;;;;;;0.00;0.00;;;;;;;2.93;55.31;101421.88;5075370;28;20301;-71
2021/04/24 04:14:18;;;;;;;0.43;0.20;;;;;;;3.04;55.07;101420.69;5072311;28;20235;-72
2021/04/24 04:16:45;;;;;;;0.23;0.10;;;;;;;3.01;54.74;101426.06;5074453;28;20289;-70
2021/04/24 04:19:12;;;;;;;0.40;0.30;;;;;;;3.15;54.67;101427.50;5074428;28;20201;-71
2021/04/24 04:21:40;;;;;;;2.77;0.30;;;;;;;3.22;54.55;101423.78;5072934;28;20227;-70
2021/04/24 04:24:07;;;;;;;0.20;0.20;;;;;;;3.27;54.54;101430.69;5074951;28;20279;-70
2021/04/24 04:26:34;;;;;;;1.13;0.20;;;;;;;3.36;54.11;101424.25;5077663;28;20284;-73
2021/04/24 04:29:02;;;;;;;0.33;0.27;;;;;;;3.42;54.13;101425.00;5090485;28;20669;-73
2021/04/24 04:31:31;;;;;;;0.53;0.10;;;;;;;3.54;53.48;101433.53;5075189;28;20196;-73
2021/04/24 04:34:00;;;;;;;0.53;0.10;;;;;;;3.64;53.70;101413.75;5082833;28;20632;-73
2021/04/24 04:36:27;;;;;;;0.40;0.23;;;;;;;3.81;53.55;101431.88;5082128;28;20662;-74
2021/04/24 04:38:54;;;;;;;0.97;0.20;;;;;;;3.87;53.23;101429.03;5075080;28;20319;-74
2021/04/24 04:41:26;;;;;;;0.00;0.00;;;;;;;3.76;53.26;101378.88;5076158;28;20221;-73
2021/04/24 04:43:53;;;;;;;0.17;0.10;;;;;;;4.08;53.04;101430.19;5078434;28;20196;-74
2021/04/24 04:46:21;;;;;;;0.10;0.10;;;;;;;4.02;53.06;101392.28;5080669;28;20198;-70
2021/04/24 04:48:49;;;;;;;0.10;0.10;;;;;;;4.12;52.23;101397.31;5074856;28;20195;-71
2021/04/24 04:51:17;;;;;;;0.00;0.00;;;;;;;4.42;51.39;101420.28;5078132;28;20660;-73
2021/04/24 04:53:44;;;;;;;0.00;0.00;;;;;;;4.58;51.87;101434.81;5081964;28;20221;-74
2021/04/24 04:56:12;;;;;;;0.53;0.20;;;;;;;4.72;51.46;101426.41;5078005;28;20204;-73
2021/04/24 04:58:42;;;;;;;0.90;0.30;;;;;;;4.92;51.50;101423.97;5081272;28;20201;-73
2021/04/24 05:01:11;;;;;;;0.10;0.10;;;;;;;5.09;50.71;101423.38;5078002;28;20219;-73
2021/04/24 05:03:39;;;;;;;0.20;0.20;;;;;;;5.15;50.36;101420.50;5070709;28;20209;-71
2021/04/24 05:06:07;;;;;;;0.47;0.47;;;;;;;5.11;49.24;101420.66;5070024;28;20223;-71
2021/04/24 05:08:36;;;;;;;2.47;0.20;;;;;;;5.23;49.53;101429.13;5072283;28;20284;-71
2021/04/24 05:11:04;;;;;;;1.50;0.17;;;;;;;5.30;50.03;101400.47;5074752;28;20325;-71
2021/04/24 05:13:31;;;;;;;0.10;0.10;;;;;;;5.39;49.20;101418.78;5073418;28;20226;-71
2021/04/24 05:15:59;;;;;;;2.40;0.40;;;;;;;5.53;49.15;101420.97;5073388;28;20207;-70
2021/04/24 05:18:26;;;;;;;0.20;0.20;;;;;;;5.63;49.05;101421.50;5078549;28;20221;-71
2021/04/24 05:20:53;;;;;;;0.43;0.20;;;;;;;5.73;48.98;101417.56;5078649;28;20305;-71
2021/04/24 05:23:22;;;;;;;0.20;0.20;;;;;;;5.99;49.23;101419.28;5074697;28;20324;-72
2021/04/24 05:25:49;;;;;;;0.20;0.20;;;;;;;6.22;48.69;101420.16;5083854;28;20281;-72
2021/04/24 05:28:16;;;;;;;0.10;0.10;;;;;;;6.39;47.82;101424.81;5077647;28;20200;-72
2021/04/24 05:30:43;;;;;;;0.20;0.20;;;;;;;6.36;47.74;101427.59;5078552;28;20229;-72
2021/04/24 05:33:11;;;;;;;0.13;0.10;;;;;;;6.49;47.90;101420.00;5076971;28;20736;-72
2021/04/24 05:35:38;;;;;;;0.30;0.30;;;;;;;6.71;46.96;101430.66;5073371;28;20277;-71
2021/04/24 05:38:05;;;;;;;0.17;0.10;;;;;;;6.80;46.02;101424.97;5077295;28;20204;-72
2021/04/24 05:40:33;;;;;;;1.53;0.17;;;;;;;6.84;45.77;101421.22;5074455;28;20686;-72
2021/04/24 05:43:01;;;;;;;0.20;0.20;;;;;;;7.10;46.44;101426.34;5076684;28;20215;-72
2021/04/24 05:45:28;;;;;;;2.20;0.30;;;;;;;7.18;44.40;101426.00;5074044;28;20674;-73
2021/04/24 05:47:55;;;;;;;0.10;0.10;;;;;;;7.29;45.55;101410.38;5083608;28;20289;-72
2021/04/24 05:50:24;;;;;;;1.70;0.27;;;;;;;7.34;45.24;101389.66;5074937;28;20283;-72
2021/04/24 05:52:54;;;;;;;0.10;0.10;;;;;;;7.60;44.01;101423.25;5073265;28;20215;-72
2021/04/24 05:55:21;;;;;;;0.30;0.30;;;;;;;7.55;44.48;101425.28;5073879;28;20569;-72
2021/04/24 05:57:49;;;;;;;0.40;0.00;;;;;;;7.62;43.86;101421.38;5075468;28;20282;-72
2021/04/24 06:00:18;;;;;;;2.00;0.10;;;;;;;7.60;43.48;101423.25;5076429;28;20201;-72
2021/04/24 06:02:46;;;;;;;2.93;0.27;;;;;;;7.41;43.76;101375.13;5077417;28;20236;-73
2021/04/24 06:05:15;;;;;;;0.20;0.20;;;;;;;7.59;42.92;101394.81;5073801;28;20283;-73
2021/04/24 06:07:42;;;;;;;0.10;0.10;;;;;;;7.99;43.11;101419.75;5073292;28;20199;-74
2021/04/24 06:10:11;;;;;;;0.10;0.10;;;;;;;7.94;42.73;101432.44;5082260;28;20294;-73
2021/04/24 06:12:40;;;;;;;1.47;0.30;;;;;;;8.00;42.91;101426.84;5076222;28;20599;-73
2021/04/24 06:15:09;;;;;;;0.00;0.00;;;;;;;7.59;42.63;101351.16;5081881;28;20207;-73
2021/04/24 06:17:37;;;;;;;0.97;0.40;;;;;;;7.87;41.36;101394.41;5084137;28;20196;-73
2021/04/24 06:20:07;;;;;;;0.33;0.30;;;;;;;7.94;42.01;101411.91;5085443;28;20281;-73
2021/04/24 06:22:34;;;;;;;0.23;0.23;;;;;;;8.20;42.45;101408.03;5087256;28;20254;-73
2021/04/24 06:25:01;;;;;;;0.23;0.10;;;;;;;8.16;41.97;101400.22;5080963;28;20394;-72
2021/04/24 06:27:28;;;;;;;0.63;0.20;;;;;;;8.05;40.63;101414.09;5075234;28;20204;-73
2021/04/24 06:29:56;;;;;;;0.20;0.20;;;;;;;7.99;40.66;101398.34;5078226;28;20747;-73
2021/04/24 06:32:24;;;;;;;0.00;0.00;;;;;;;7.60;40.95;101353.78;5075591;28;20196;-74
2021/04/24 06:34:52;;;;;;;0.20;0.20;;;;;;;8.06;41.45;101402.47;5073124;28;20906;-72
2021/04/24 06:37:19;;;;;;;4.90;0.30;;;;;;;8.19;40.96;101413.44;5074828;28;20260;-72
2021/04/24 06:39:46;;;;;;;0.10;0.10;;;;;;;8.26;40.71;101413.06;5079455;28;20197;-68
2021/04/24 06:42:15;;;;;;;0.93;0.23;;;;;;;8.31;40.57;101412.88;5080427;28;20226;-73
2021/04/24 06:44:42;;;;;;;0.97;0.50;;;;;;;7.76;40.35;101362.84;5074804;28;20213;-73
2021/04/24 06:47:09;;;;;;;0.50;0.10;;;;;;;7.99;40.47;101414.41;5074762;28;20206;-73
2021/04/24 06:49:38;;;;;;;1.07;0.13;;;;;;;8.01;40.32;101394.66;5071610;28;20203;-73
2021/04/24 06:52:06;;;;;;;0.10;0.10;;;;;;;8.22;40.53;101406.13;5073067;28;20340;-73
2021/04/24 06:54:33;;;;;;;0.20;0.20;;;;;;;8.27;39.65;101413.97;5071166;28;20203;-73
2021/04/24 06:57:05;;;;;;;0.20;0.10;;;;;;;8.31;39.92;101392.34;5072836;28;20623;-74
2021/04/24 06:59:32;;;;;;;0.73;0.20;;;;;;;8.49;40.59;101409.34;5073130;28;20665;-74
2021/04/24 07:01:59;;;;;;;0.47;0.27;;;;;;;8.53;41.04;101399.34;5071195;28;20214;-73
2021/04/24 07:04:27;;;;;;;0.10;0.10;;;;;;;8.58;39.24;101408.91;5071688;28;20545;-73
2021/04/24 07:06:55;;;;;;;0.40;0.20;;;;;;;8.87;40.20;101395.88;5073949;28;20557;-73
2021/04/24 07:09:22;;;;;;;0.83;0.20;;;;;;;9.01;38.35;101414.81;5089934;28;20662;-74
2021/04/24 07:11:50;;;;;;;0.10;0.10;;;;;;;8.63;39.16;101339.09;5085298;28;20231;-74
2021/04/24 07:14:17;;;;;;;0.10;0.10;;;;;;;9.13;38.17;101398.09;5083851;28;20276;-74
2021/04/24 07:16:44;;;;;;;0.20;0.20;;;;;;;9.14;37.53;101407.00;5079284;28;20203;-71
2021/04/24 07:19:17;;;;;;;2.23;0.40;;;;;;;9.12;37.53;101408.91;5085915;28;20223;-71
2021/04/24 07:21:48;;;;;;;0.03;0.03;;;;;;;8.89;36.74;101407.41;5083247;28;20271;-71
2021/04/24 07:24:16;;;;;;;0.10;0.10;;;;;;;8.92;37.53;101407.25;5084927;28;20195;-70
2021/04/24 07:26:44;;;;;;;0.10;0.00;;;;;;;9.23;37.19;101412.78;5084891;28;20190;-71
2021/04/24 07:29:11;;;;;;;0.10;0.10;;;;;;;9.59;38.40;101407.31;5085900;28;20699;-71
2021/04/24 07:31:39;;;;;;;3.50;0.50;;;;;;;9.56;37.15;101409.28;5085748;28;20199;-71
2021/04/24 07:34:07;;;;;;;0.23;0.20;;;;;;;9.57;37.84;101409.22;5083738;28;20203;-71
2021/04/24 07:36:36;;;;;;;1.13;0.20;;;;;;;9.74;37.56;101407.44;5090733;28;20233;-70
2021/04/24 07:39:04;;;;;;;0.10;0.10;;;;;;;9.58;36.32;101384.13;5092164;28;20211;-70
2021/04/24 07:41:32;;;;;;;1.10;0.20;;;;;;;9.44;36.21;101362.53;5077742;28;20304;-70
2021/04/24 07:44:00;;;;;;;0.57;0.30;;;;;;;9.55;36.44;101400.38;5077699;28;20230;-70
2021/04/24 07:46:28;;;;;;;0.20;0.20;;;;;;;9.71;37.44;101399.53;5084964;28;20650;-70
2021/04/24 07:48:55;;;;;;;0.20;0.10;;;;;;;9.64;36.04;101390.97;5078544;28;20223;-71
2021/04/24 07:51:22;;;;;;;2.83;0.30;;;;;;;10.14;36.83;101403.47;5072754;28;20203;-70
2021/04/24 07:53:49;;;;;;;1.07;0.17;;;;;;;10.25;36.10;101404.63;5083570;28;20584;-70
2021/04/24 07:56:17;;;;;;;0.00;0.00;;;;;;;10.22;36.07;101396.75;5086573;28;20202;-70
2021/04/24 07:58:45;;;;;;;0.10;0.10;;;;;;;9.92;35.02;101412.69;5085917;28;20203;-71
2021/04/24 08:01:12;;;;;;;0.30;0.20;;;;;;;10.13;36.94;101407.97;5088308;28;20206;-70
2021/04/24 08:03:40;;;;;;;0.30;0.23;;;;;;;9.98;36.49;101399.88;5088302;28;20203;-71
2021/04/24 08:06:07;;;;;;;0.10;0.10;;;;;;;10.11;36.82;101401.81;5081702;28;20288;-71
2021/04/24 08:08:34;;;;;;;0.10;0.10;;;;;;;9.66;36.14;101407.84;5074759;28;20201;-70
2021/04/24 08:11:02;;;;;;;0.20;0.10;;;;;;;9.58;37.00;101404.72;5080096;28;20249;-71
2021/04/24 08:13:29;;;;;;;2.47;0.30;;;;;;;9.67;36.85;101380.06;5082822;28;20201;-72
2021/04/24 08:15:57;;;;;;;0.07;0.07;;;;;;;9.78;37.67;101404.50;5088982;28;20280;-70
2021/04/24 08:18:24;;;;;;;0.67;0.40;;;;;;;9.23;36.60;101415.47;5083986;28;20709;-73
2021/04/24 08:20:51;;;;;;;0.00;0.00;;;;;;;9.23;37.53;101411.91;5087237;28;20244;-72
2021/04/24 08:23:20;;;;;;;2.13;0.40;;;;;;;8.83;37.78;101372.88;5086021;28;20220;-72
2021/04/24 08:25:47;;;;;;;0.77;0.20;;;;;;;8.83;36.03;101411.22;5076882;28;20192;-72
2021/04/24 08:28:14;;;;;;;0.63;0.40;;;;;;;8.88;38.26;101403.00;5084708;28;20193;-71
2021/04/24 08:30:41;;;;;;;0.20;0.20;;;;;;;8.87;37.34;101411.94;5083766;28;20221;-71
2021/04/24 08:33:09;;;;;;;0.10;0.10;;;;;;;8.92;35.96;101413.47;5086317;28;20223;-70
2021/04/24 08:35:37;;;;;;;0.20;0.20;;;;;;;8.99;37.73;101406.84;5081442;28;20739;-71
2021/04/24 08:38:05;;;;;;;0.30;0.30;;;;;;;9.14;37.59;101409.69;5083132;28;20197;-71
2021/04/24 08:40:32;;;;;;;0.20;0.17;;;;;;;9.06;37.52;101406.53;5075608;28;20315;-71
2021/04/24 08:43:01;;;;;;;0.00;0.00;;;;;;;9.18;37.92;101405.91;5084166;28;20231;-71
2021/04/24 08:45:30;;;;;;;0.10;0.10;;;;;;;9.05;35.92;101404.81;5075419;28;20197;-71
2021/04/24 08:47:57;;;;;;;0.23;0.10;;;;;;;8.82;38.17;101398.78;5082586;28;20540;-71
2021/04/24 08:50:27;;;;;;;1.07;0.27;;;;;;;8.85;36.64;101409.34;5088013;28;20281;-71
2021/04/24 08:52:55;;;;;;;1.80;0.10;;;;;;;9.13;36.80;101394.56;5080027;28;20194;-71
2021/04/24 08:55:29;;;;;;;0.10;0.10;;;;;;;9.64;38.31;101389.16;5078399;28;20274;-71
2021/04/24 08:57:57;;;;;;;0.77;0.13;;;;;;;10.02;35.84;101388.88;5088998;28;20282;-71
2021/04/24 09:00:28;;;;;;;0.03;0.03;;;;;;;9.86;36.51;101396.06;5079343;28;20683;-71
2021/04/24 09:02:56;;;;;;;0.23;0.20;;;;;;;9.94;36.29;101394.69;5083430;28;20220;-72
2021/04/24 09:05:25;;;;;;;0.10;0.10;;;;;;;10.03;35.96;101350.38;5084622;28;20210;-71
2021/04/24 09:08:00;;;;;;;0.60;0.10;;;;;;;10.40;34.68;101396.66;5083503;28;20805;-72
2021/04/24 09:10:27;;;;;;;0.07;0.07;;;;;;;10.77;34.52;101393.59;5084749;28;20243;-72
2021/04/24 09:12:55;;;;;;;9.63;0.60;;;;;;;10.85;35.35;101394.00;5082439;28;20680;-71
2021/04/24 09:15:24;;;;;;;2.70;0.30;;;;;;;10.84;33.96;101396.78;5079643;28;20227;-72
2021/04/24 09:17:55;;;;;;;0.10;0.10;;;;;;;10.92;34.05;101399.03;5086113;28;20350;-71
2021/04/24 09:20:25;;;;;;;0.10;0.10;;;;;;;11.25;33.59;101390.78;5084303;28;20207;-74
2021/04/24 09:23:05;;;;;;;0.30;0.30;;;;;;;11.38;31.60;101394.47;5082729;28;20221;-73
2021/04/24 09:25:41;;;;;;;0.30;0.20;;;;;;;11.43;31.74;101404.00;5082413;28;20640;-71
2021/04/24 09:28:10;;;;;;;0.20;0.20;;;;;;;11.78;31.89;101398.28;5079882;28;20208;-72
2021/04/24 09:30:40;;;;;;;0.30;0.30;;;;;;;11.80;30.90;101404.44;5081842;28;20304;-71
2021/04/24 09:33:12;;;;;;;0.30;0.30;;;;;;;11.91;31.46;101409.16;5076322;28;20277;-71
2021/04/24 09:35:42;;;;;;;0.20;0.20;;;;;;;11.77;31.67;101399.22;5082344;28;20232;-70
2021/04/24 09:38:16;;;;;;;0.20;0.10;;;;;;;11.77;31.54;101399.22;5076873;28;20204;-71
2021/04/24 09:40:43;;;;;;;0.50;0.20;;;;;;;11.54;31.80;101422.16;5081003;28;20253;-70
2021/04/24 09:43:10;;;;;;;0.10;0.10;;;;;;;11.58;31.27;101406.69;5080166;28;20581;-69
2021/04/24 09:45:40;;;;;;;0.13;0.13;;;;;;;11.04;32.20;101377.69;5079130;28;20201;-72
2021/04/24 09:48:20;;;;;;;0.30;0.30;;;;;;;11.59;31.20;101394.97;5076739;28;20576;-73
2021/04/24 09:50:47;;;;;;;0.27;0.20;;;;;;;11.77;30.91;101393.84;5077062;28;20199;-71
2021/04/24 09:53:23;;;;;;;0.10;0.10;;;;;;;11.37;31.53;101379.31;5081624;28;20272;-72
2021/04/24 09:55:52;;;;;;;0.30;0.20;;;;;;;10.58;31.44;101411.72;5083634;28;20223;-72
2021/04/24 09:58:35;;;;;;;0.30;0.30;;;;;;;10.75;32.57;101398.19;5077023;28;20251;-70
2021/04/24 10:01:24;;;;;;;0.93;0.23;;;;;;;11.02;31.70;101394.81;5073670;28;20212;-69
2021/04/24 10:03:53;;;;;;;0.53;0.47;;;;;;;11.07;31.45;101403.50;5080918;28;20307;-69
2021/04/24 10:06:29;;;;;;;0.10;0.10;;;;;;;11.05;32.39;101403.59;5075917;28;20239;-69
2021/04/24 10:09:17;;;;;;;4.33;0.30;;;;;;;11.06;32.30;101399.09;5077048;28;20202;-68
2021/04/24 10:11:48;;;;;;;0.10;0.10;;;;;;;10.69;32.30;101397.66;5077683;28;20960;-68
2021/04/24 10:14:28;;;;;;;0.10;0.10;;;;;;;10.60;32.64;101409.81;5083369;28;20200;-68
2021/04/24 10:16:56;;;;;;;0.00;0.00;;;;;;;10.84;33.17;101403.03;5080121;28;20295;-71
2021/04/24 10:19:26;;;;;;;0.20;0.20;;;;;;;11.12;32.45;101396.03;5083700;28;20569;-71
2021/04/24 10:21:53;;;;;;;0.10;0.10;;;;;;;11.34;31.20;101388.41;5078322;28;20634;-69
2021/04/24 10:24:23;;;;;;;0.20;0.20;;;;;;;11.30;32.57;101400.28;5083124;28;20248;-69
2021/04/24 10:26:51;;;;;;;0.10;0.10;;;;;;;11.56;31.55;101396.03;5085135;28;20218;-71
2021/04/24 10:29:20;;;;;;;0.10;0.10;;;;;;;11.07;30.97;101403.50;5086339;28;20254;-71
2021/04/24 10:31:48;;;;;;;0.30;0.30;;;;;;;10.97;32.11;101413.06;5102888;27;20215;-71
2021/04/24 10:34:16;;;;;;;0.20;0.20;;;;;;;11.34;31.40;101401.88;5072251;28;20200;-69
2021/04/24 10:36:44;;;;;;;0.20;0.20;;;;;;;11.25;31.55;101391.63;5073910;28;20207;-69
2021/04/24 10:39:13;;;;;;;0.50;0.20;;;;;;;11.02;31.86;101373.31;5077599;28;20201;-72
2021/04/24 10:41:44;;;;;;;0.00;0.00;;;;;;;10.78;31.07;101408.78;5071113;28;20287;-72
2021/04/24 10:44:14;;;;;;;0.00;0.00;;;;;;;10.61;31.70;101408.84;5076750;28;20257;-71
2021/04/24 10:46:47;;;;;;;0.30;0.30;;;;;;;10.65;31.46;101412.22;5075505;28;20207;-71
2021/04/24 10:49:33;;;;;;;0.30;0.30;;;;;;;10.82;32.40;101387.97;5071254;28;20200;-70
2021/04/24 10:52:07;;;;;;;0.10;0.10;;;;;;;11.29;32.00;101395.00;5077046;28;20231;-70
2021/04/24 10:54:37;;;;;;;0.00;0.00;;;;;;;11.47;31.62;101386.69;5073367;28;20266;-71
2021/04/24 10:57:43;;;;;;;0.17;0.17;;;;;;;11.30;31.52;101394.91;5079666;28;20201;-69
2021/04/24 11:00:13;;;;;;;1.07;0.40;;;;;;;10.83;31.64;101366.38;5099767;28;20208;-71
2021/04/24 11:02:44;;;;;;;0.50;0.20;;;;;;;11.21;31.81;101406.22;5077203;28;20268;-70
2021/04/24 11:05:26;;;;;;;3.07;0.43;;;;;;;11.53;31.55;101401.59;5072455;28;20207;-71
2021/04/24 11:08:22;;;;;;;0.60;0.60;;;;;;;12.09;30.76;101392.72;5075725;28;20248;-71
2021/04/24 11:10:57;;;;;;;1.03;0.60;;;;;;;12.01;31.20;101392.34;5073755;28;20248;-71
2021/04/24 11:13:27;;;;;;;1.40;1.00;;;;;;;11.95;31.15;101391.88;5078222;28;20222;-71
2021/04/24 11:15:55;;;;;;;1.53;0.60;;;;;;;11.64;30.29;101409.91;5074332;28;20461;-71
2021/04/24 11:18:24;;;;;;;0.83;0.70;;;;;;;11.13;30.88;101395.06;5078217;28;20203;-71
2021/04/24 11:20:55;;;;;;;0.60;0.33;;;;;;;11.01;31.54;101410.09;5074635;28;20229;-70
2021/04/24 11:23:46;;;;;;;0.27;0.27;;;;;;;11.11;31.49;101408.63;5071319;28;20828;-70
2021/04/24 11:26:17;;;;;;;0.20;0.20;;;;;;;11.01;31.76;101333.97;5086787;28;20204;-70
2021/04/24 11:29:07;;;;;;;1.40;0.60;;;;;;;11.91;31.72;101387.63;5078267;28;20241;-70
2021/04/24 11:31:53;;;;;;;0.37;0.37;;;;;;;12.21;31.52;101376.72;5076397;28;20201;-71
2021/04/24 11:34:26;;;;;;;0.63;0.63;;;;;;;12.23;30.61;101385.56;5079227;28;20734;-71
2021/04/24 11:37:23;;;;;;;0.50;0.50;;;;;;;11.99;30.62;101394.28;5076331;28;20311;-70
2021/04/24 11:40:11;;;;;;;0.33;0.33;;;;;;;12.05;30.92;101387.63;5079503;28;20560;-70
2021/04/24 11:42:50;;;;;;;0.20;0.20;;;;;;;12.17;31.43;101381.44;5074180;28;20237;-70